createdAt,value
2018-04-16T00:01:07.357Z,90.90
2018-04-16T00:03:34.809Z,90.80
2018-04-16T00:06:02.263Z,91.30
2018-04-16T00:08:29.726Z,91.30
2018-04-16T00:10:57.179Z,91.00
2018-04-16T00:13:24.671Z,91.00
2018-04-16T00:15:52.124Z,91.30
2018-04-16T00:18:19.580Z,91.40
2018-04-16T00:20:47.044Z,91.10
2018-04-16T00:23:15.261Z,91.90
2018-04-16T00:25:42.741Z,91.80
2018-04-16T00:28:10.213Z,91.90
2018-04-16T00:30:37.674Z,91.70
2018-04-16T00:36:23.585Z,91.30
2018-04-16T00:38:56.664Z,91.50
2018-04-16T00:41:29.810Z,92.10
2018-04-16T00:44:02.911Z,92.40
2018-04-16T00:46:36.797Z,92.20
2018-04-16T00:49:09.986Z,91.80
2018-04-16T00:51:43.184Z,92.20
2018-04-16T00:54:22.885Z,92.30
2018-04-16T00:56:56.888Z,92.40
2018-04-16T00:59:30.072Z,92.30
2018-04-16T01:02:03.193Z,92.70
2018-04-16T01:04:36.458Z,93.20
2018-04-16T01:07:09.728Z,93.40
2018-04-16T01:09:42.922Z,93.40
2018-04-16T01:12:16.140Z,93.70
2018-04-16T01:14:49.353Z,93.90
2018-04-16T01:17:22.551Z,93.70
2018-04-16T01:19:55.859Z,92.90
2018-04-16T01:22:29.118Z,92.60
2018-04-16T01:28:05.981Z,92.30
2018-04-16T01:30:39.194Z,92.20
2018-04-16T01:33:12.449Z,92.10
2018-04-16T01:35:46.441Z,92.80
2018-04-16T01:38:19.652Z,92.80
2018-04-16T01:40:52.816Z,93.10
2018-04-16T01:43:26.700Z,92.80
2018-04-16T01:45:59.993Z,92.80
2018-04-16T01:48:34.054Z,92.50
2018-04-16T01:51:07.242Z,92.50
2018-04-16T01:53:41.085Z,92.40
2018-04-16T01:56:14.260Z,92.40
2018-04-16T01:58:47.505Z,92.40
2018-04-16T02:01:20.667Z,92.10
2018-04-16T02:03:53.928Z,91.90
2018-04-16T02:06:28.557Z,91.90
2018-04-16T02:09:01.858Z,91.80
2018-04-16T02:11:35.150Z,91.80
2018-04-16T02:14:08.322Z,91.60
2018-04-16T02:16:41.536Z,91.60
2018-04-16T02:19:14.733Z,91.60
2018-04-16T02:21:47.991Z,91.90
2018-04-16T02:24:21.276Z,91.60
2018-04-16T02:26:54.458Z,91.50
2018-04-16T02:29:28.326Z,91.20
2018-04-16T02:32:01.545Z,91.20
2018-04-16T02:34:34.725Z,91.60
2018-04-16T02:37:08.629Z,91.10
2018-04-16T02:39:41.692Z,91.10
2018-04-16T02:42:15.057Z,92.00
2018-04-16T02:44:48.244Z,92.40
2018-04-16T02:50:24.070Z,93.20
2018-04-16T02:52:57.281Z,93.10
2018-04-16T02:55:30.542Z,93.30
2018-04-16T02:58:03.781Z,93.30
2018-04-16T03:00:37.091Z,93.50
2018-04-16T03:03:10.348Z,93.50
2018-04-16T03:05:43.560Z,93.80
2018-04-16T03:08:17.410Z,93.30
2018-04-16T03:10:50.637Z,93.20
2018-04-16T03:13:23.829Z,93.10
2018-04-16T03:15:57.064Z,93.40
2018-04-16T03:18:30.224Z,92.90
2018-04-16T03:21:03.509Z,93.00
2018-04-16T03:23:37.344Z,93.10
2018-04-16T03:26:11.265Z,93.20
2018-04-16T03:28:45.297Z,93.30
2018-04-16T03:31:18.493Z,93.30
2018-04-16T03:33:51.772Z,93.30
2018-04-16T03:36:25.635Z,93.60
2018-04-16T03:38:58.874Z,93.50
2018-04-16T03:44:30.934Z,93.00
2018-04-16T03:47:04.225Z,91.40
2018-04-16T03:49:37.459Z,91.60
2018-04-16T03:52:11.579Z,90.40
2018-04-16T03:54:39.038Z,90.00
2018-04-16T03:57:07.285Z,90.00
2018-04-16T03:59:34.743Z,89.90
2018-04-16T04:02:02.261Z,90.70
2018-04-16T04:04:29.716Z,90.70
2018-04-16T04:06:57.180Z,90.90
2018-04-16T04:09:25.409Z,91.20
2018-04-16T04:11:52.905Z,91.10
2018-04-16T04:14:20.365Z,91.10
2018-04-16T04:16:48.592Z,92.10
2018-04-16T04:19:16.101Z,92.10
2018-04-16T04:21:43.558Z,92.00
2018-04-16T04:24:23.040Z,92.50
2018-04-16T04:27:02.336Z,92.30
2018-04-16T04:29:41.764Z,92.20
2018-04-16T04:32:09.246Z,92.80
2018-04-16T04:34:36.758Z,93.10
2018-04-16T04:37:04.249Z,93.40
2018-04-16T04:39:31.795Z,93.50
2018-04-16T04:42:00.009Z,93.80
2018-04-16T04:44:28.237Z,93.80
2018-04-16T04:46:55.709Z,93.80
2018-04-16T04:49:23.947Z,94.20
2018-04-16T04:51:51.471Z,94.20
2018-04-16T04:54:19.705Z,94.20
2018-04-16T04:56:47.250Z,94.20
2018-04-16T04:59:15.098Z,94.30
2018-04-16T05:01:43.316Z,94.20
2018-04-16T05:04:10.777Z,94.20
2018-04-16T05:06:38.999Z,94.20
2018-04-16T05:09:06.452Z,94.20
2018-04-16T05:11:34.672Z,94.50
2018-04-16T05:14:02.128Z,94.30
2018-04-16T05:16:29.683Z,94.30
2018-04-16T05:18:57.161Z,94.80
2018-04-16T05:21:24.640Z,94.20
2018-04-16T05:23:52.124Z,94.00
2018-04-16T05:26:19.584Z,94.60
2018-04-16T05:28:47.062Z,94.80
2018-04-16T05:31:15.278Z,95.30
2018-04-16T05:33:42.734Z,95.30
2018-04-16T05:36:10.184Z,95.40
2018-04-16T05:38:37.647Z,95.30
2018-04-16T05:41:05.163Z,95.50
2018-04-16T05:43:32.612Z,94.30
2018-04-16T05:46:00.070Z,93.70
2018-04-16T05:48:27.553Z,93.70
2018-04-16T05:50:55.073Z,93.80
2018-04-16T05:53:22.562Z,93.20
2018-04-16T05:55:50.012Z,93.10
2018-04-16T05:58:17.472Z,92.90
2018-04-16T06:00:45.693Z,93.20
2018-04-16T06:03:13.929Z,93.10
2018-04-16T06:05:41.386Z,93.10
2018-04-16T06:08:08.845Z,93.00
2018-04-16T06:10:37.068Z,92.80
2018-04-16T06:13:05.355Z,93.20
2018-04-16T06:15:33.574Z,93.60
2018-04-16T06:18:01.120Z,93.60
2018-04-16T06:20:28.580Z,93.40
2018-04-16T06:22:56.089Z,93.30
2018-04-16T06:25:23.548Z,93.50
2018-04-16T06:27:50.997Z,93.30
2018-04-16T06:30:19.360Z,93.00
2018-04-16T06:32:46.813Z,93.00
2018-04-16T06:35:14.272Z,92.90
2018-04-16T06:37:42.494Z,92.90
2018-04-16T06:40:10.001Z,92.90
2018-04-16T06:42:37.473Z,93.10
2018-04-16T06:45:04.929Z,93.10
2018-04-16T06:47:32.397Z,93.50
2018-04-16T06:50:00.617Z,93.50
2018-04-16T06:52:28.080Z,93.50
2018-04-16T06:54:55.536Z,93.70
2018-04-16T06:57:22.999Z,93.60
2018-04-16T06:59:50.459Z,93.60
2018-04-16T07:02:17.984Z,93.70
2018-04-16T07:04:45.452Z,93.80
2018-04-16T07:07:12.921Z,93.90
2018-04-16T07:09:40.420Z,93.70
2018-04-16T07:12:07.889Z,93.60
2018-04-16T07:14:35.358Z,93.10
2018-04-16T07:17:02.817Z,92.70
2018-04-16T07:19:30.278Z,92.90
2018-04-16T07:21:57.821Z,93.00
2018-04-16T07:24:25.326Z,92.80
2018-04-16T07:26:52.765Z,93.20
2018-04-16T07:29:20.272Z,93.10
2018-04-16T07:31:47.766Z,93.20
2018-04-16T07:34:15.229Z,93.00
2018-04-16T07:36:42.724Z,92.40
2018-04-16T07:39:10.188Z,92.50
2018-04-16T07:41:37.646Z,92.70
2018-04-16T07:44:05.112Z,92.10
2018-04-16T07:46:33.328Z,91.20
2018-04-16T07:49:00.868Z,91.20
2018-04-16T07:51:28.332Z,91.10
2018-04-16T07:53:55.793Z,90.40
2018-04-16T07:56:23.307Z,90.40
2018-04-16T07:58:50.777Z,88.00
2018-04-16T08:01:18.272Z,89.00
2018-04-16T08:03:45.730Z,88.60
2018-04-16T08:06:13.203Z,87.60
2018-04-16T08:08:40.662Z,88.00
2018-04-16T08:11:08.888Z,86.30
2018-04-16T08:13:36.350Z,86.20
2018-04-16T08:16:03.856Z,84.60
2018-04-16T08:18:31.275Z,82.10
2018-04-16T08:20:58.735Z,82.10
2018-04-16T08:23:26.201Z,80.70
2018-04-16T08:25:53.659Z,82.00
2018-04-16T08:28:21.112Z,81.70
2018-04-16T08:30:48.600Z,79.60
2018-04-16T08:33:16.104Z,78.80
2018-04-16T08:35:43.562Z,78.40
2018-04-16T08:38:11.018Z,77.10
2018-04-16T08:40:38.482Z,75.60
2018-04-16T08:43:06.725Z,74.20
2018-04-16T08:45:34.184Z,74.20
2018-04-16T08:48:01.699Z,74.60
2018-04-16T08:50:29.214Z,73.90
2018-04-16T08:52:57.439Z,73.30
2018-04-16T08:55:24.953Z,73.10
2018-04-16T08:57:52.432Z,72.80
2018-04-16T09:00:19.889Z,73.70
2018-04-16T09:02:47.359Z,74.00
2018-04-16T09:05:14.814Z,72.00
2018-04-16T09:07:43.079Z,72.80
2018-04-16T09:10:10.597Z,72.80
2018-04-16T09:12:38.055Z,72.50
2018-04-16T09:15:05.518Z,72.70
2018-04-16T09:17:32.976Z,71.80
2018-04-16T09:20:01.225Z,67.90
2018-04-16T09:22:28.693Z,67.70
2018-04-16T09:24:56.153Z,66.40
2018-04-16T09:27:24.380Z,64.00
2018-04-16T09:29:51.841Z,63.90
2018-04-16T09:32:20.100Z,63.10
2018-04-16T09:34:48.317Z,64.10
2018-04-16T09:37:15.829Z,64.00
2018-04-16T09:39:43.303Z,62.90
2018-04-16T09:42:10.770Z,62.60
2018-04-16T09:44:38.224Z,62.00
2018-04-16T09:47:06.444Z,60.90
2018-04-16T09:49:33.904Z,60.70
2018-04-16T09:52:02.168Z,61.10
2018-04-16T09:54:29.637Z,61.10
2018-04-16T09:56:57.134Z,62.20
2018-04-16T09:59:24.605Z,64.10
2018-04-16T10:01:52.068Z,62.90
2018-04-16T10:04:19.536Z,62.10
2018-04-16T10:06:47.765Z,63.30
2018-04-16T10:09:15.228Z,63.10
2018-04-16T10:11:43.476Z,60.00
2018-04-16T10:14:10.945Z,60.00
2018-04-16T10:16:38.426Z,60.60
2018-04-16T10:19:05.929Z,59.50
2018-04-16T10:21:33.408Z,58.90
2018-04-16T10:24:00.901Z,57.90
2018-04-16T10:26:28.385Z,57.40
2018-04-16T10:28:55.869Z,60.50
2018-04-16T10:31:23.342Z,60.30
2018-04-16T10:33:50.879Z,60.10
2018-04-16T10:36:19.133Z,57.70
2018-04-16T10:38:46.593Z,57.70
2018-04-16T10:41:14.109Z,58.60
2018-04-16T10:43:41.576Z,58.20
2018-04-16T10:46:09.052Z,58.30
2018-04-16T10:48:36.542Z,58.60
2018-04-16T10:51:04.022Z,59.40
2018-04-16T10:53:31.493Z,59.50
2018-04-16T10:55:58.977Z,60.60
2018-04-16T10:58:27.209Z,59.10
2018-04-16T11:00:54.757Z,59.10
2018-04-16T11:03:22.205Z,59.90
2018-04-16T11:05:49.674Z,62.30
2018-04-16T11:08:17.178Z,60.50
2018-04-16T11:10:44.636Z,61.30
2018-04-16T11:13:12.100Z,61.10
2018-04-16T11:15:39.633Z,61.50
2018-04-16T11:18:07.214Z,61.60
2018-04-16T11:20:34.694Z,62.00
2018-04-16T11:23:02.157Z,60.50
2018-04-16T11:25:29.633Z,59.60
2018-04-16T11:27:57.093Z,60.10
2018-04-16T11:30:25.333Z,59.80
2018-04-16T11:32:52.798Z,59.80
2018-04-16T11:35:20.267Z,60.50
2018-04-16T11:37:48.498Z,59.20
2018-04-16T11:40:15.965Z,59.10
2018-04-16T11:42:43.488Z,59.80
2018-04-16T11:45:10.983Z,58.80
2018-04-16T11:47:38.452Z,61.40
2018-04-16T11:50:05.940Z,61.80
2018-04-16T11:52:33.465Z,60.10
2018-04-16T11:55:01.692Z,62.20
2018-04-16T11:57:29.273Z,62.30
2018-04-16T11:59:57.498Z,61.20
2018-04-16T12:02:24.964Z,61.20
2018-04-16T12:04:52.517Z,59.60
2018-04-16T12:07:20.751Z,58.60
2018-04-16T12:09:48.209Z,58.60
2018-04-16T12:12:16.442Z,59.40
2018-04-16T12:14:43.942Z,59.30
2018-04-16T12:17:11.414Z,57.80
2018-04-16T12:19:38.912Z,59.60
2018-04-16T12:22:06.376Z,61.30
2018-04-16T12:24:33.864Z,60.30
2018-04-16T12:27:01.363Z,61.50
2018-04-16T12:29:28.837Z,58.80
2018-04-16T12:31:56.320Z,60.30
2018-04-16T12:34:23.825Z,62.30
2018-04-16T12:36:51.290Z,61.70
2018-04-16T12:39:18.761Z,61.40
2018-04-16T12:41:46.984Z,61.00
2018-04-16T12:44:14.462Z,61.00
2018-04-16T12:46:41.994Z,60.90
2018-04-16T12:49:09.797Z,61.60
2018-04-16T12:51:37.276Z,62.40
2018-04-16T12:54:04.748Z,62.50
2018-04-16T12:56:32.221Z,64.40
2018-04-16T12:58:59.694Z,65.10
2018-04-16T13:01:27.182Z,67.40
2018-04-16T13:03:55.624Z,66.90
2018-04-16T13:06:23.866Z,69.10
2018-04-16T13:08:51.640Z,69.10
2018-04-16T13:11:19.193Z,66.60
2018-04-16T13:13:47.468Z,63.30
2018-04-16T13:16:15.030Z,63.20
2018-04-16T13:18:42.496Z,61.70
2018-04-16T13:21:10.006Z,63.70
2018-04-16T13:23:37.473Z,62.30
2018-04-16T13:26:04.949Z,60.70
2018-04-16T13:28:32.415Z,61.50
2018-04-16T13:30:59.978Z,60.20
2018-04-16T13:33:27.463Z,59.20
2018-04-16T13:35:55.019Z,60.20
2018-04-16T13:38:22.483Z,59.00
2018-04-16T13:40:50.797Z,59.50
2018-04-16T13:43:18.440Z,59.40
2018-04-16T13:45:45.905Z,61.30
2018-04-16T13:48:13.561Z,61.30
2018-04-16T13:50:41.803Z,59.20
2018-04-16T13:53:09.781Z,59.10
2018-04-16T13:55:37.248Z,60.40
2018-04-16T13:58:04.774Z,58.20
2018-04-16T14:00:32.265Z,58.80
2018-04-16T14:02:59.741Z,60.70
2018-04-16T14:05:27.206Z,63.60
2018-04-16T14:07:54.668Z,73.20
2018-04-16T14:10:22.930Z,76.40
2018-04-16T14:12:50.395Z,76.50
2018-04-16T14:15:17.947Z,76.90
2018-04-16T14:17:45.499Z,81.60
2018-04-16T14:20:12.976Z,82.90
2018-04-16T14:22:40.701Z,88.40
2018-04-16T14:25:09.450Z,90.60
2018-04-16T14:27:36.913Z,90.60
2018-04-16T14:30:05.141Z,91.30
2018-04-16T14:32:32.641Z,91.30
2018-04-16T14:35:00.138Z,92.90
2018-04-16T14:37:27.596Z,89.40
2018-04-16T14:39:55.061Z,88.70
2018-04-16T14:42:22.585Z,90.30
2018-04-16T14:44:50.046Z,91.30
2018-04-16T14:47:17.505Z,89.40
2018-04-16T14:49:45.032Z,88.70
2018-04-16T14:52:12.501Z,86.90
2018-04-16T14:54:39.998Z,82.70
2018-04-16T14:57:07.456Z,82.90
2018-04-16T14:59:34.932Z,82.80
2018-04-16T15:02:03.202Z,79.80
2018-04-16T15:04:31.452Z,80.10
2018-04-16T15:06:58.964Z,80.10
2018-04-16T15:09:26.448Z,72.90
2018-04-16T15:11:54.048Z,68.20
2018-04-16T15:14:23.071Z,63.90
2018-04-16T15:16:50.569Z,65.30
2018-04-16T15:19:18.120Z,65.80
2018-04-16T15:21:46.429Z,63.80
2018-04-16T15:24:14.700Z,62.30
2018-04-16T15:26:42.237Z,62.30
2018-04-16T15:29:09.705Z,57.00
2018-04-16T15:31:38.037Z,55.50
2018-04-16T15:34:05.549Z,55.50
2018-04-16T15:36:33.000Z,56.60
2018-04-16T15:39:00.465Z,57.90
2018-04-16T15:41:28.691Z,57.70
2018-04-16T15:43:56.241Z,57.70
2018-04-16T15:46:24.041Z,56.70
2018-04-16T15:48:52.289Z,59.80
2018-04-16T15:51:19.941Z,59.80
2018-04-16T15:53:47.395Z,58.50
2018-04-16T15:56:14.868Z,59.50
2018-04-16T16:00:04.393Z,62.50
2018-04-16T16:02:31.914Z,64.50
2018-04-16T16:04:59.878Z,65.60
2018-04-16T16:07:27.418Z,73.70
2018-04-16T16:09:54.878Z,76.60
2018-04-16T16:12:23.160Z,87.60
2018-04-16T16:14:50.608Z,87.60
2018-04-16T16:17:18.065Z,87.10
2018-04-16T16:19:46.310Z,86.60
2018-04-16T16:22:13.795Z,86.60
2018-04-16T16:24:41.377Z,86.70
2018-04-16T16:27:08.847Z,86.80
2018-04-16T16:29:36.344Z,88.50
2018-04-16T16:32:03.931Z,90.60
2018-04-16T16:34:31.447Z,82.60
2018-04-16T16:36:58.904Z,85.00
2018-04-16T16:39:26.364Z,86.90
2018-04-16T16:41:53.929Z,83.10
2018-04-16T16:44:22.172Z,77.50
2018-04-16T16:46:49.653Z,77.40
2018-04-16T16:49:17.112Z,80.90
2018-04-16T16:51:44.629Z,79.30
2018-04-16T16:54:12.110Z,77.50
2018-04-16T16:56:39.636Z,79.80
2018-04-16T16:59:07.096Z,77.00
2018-04-16T17:01:34.671Z,80.30
2018-04-16T17:04:02.245Z,77.30
2018-04-16T17:06:29.704Z,77.10
2018-04-16T17:08:57.168Z,76.10
2018-04-16T17:11:25.390Z,69.40
2018-04-16T17:13:52.851Z,69.30
2018-04-16T17:16:20.309Z,71.60
2018-04-16T17:18:47.816Z,71.40
2018-04-16T17:21:15.277Z,69.60
2018-04-16T17:23:42.819Z,75.60
2018-04-16T17:26:11.045Z,74.70
2018-04-16T17:28:38.573Z,74.70
2018-04-16T17:31:06.049Z,76.60
2018-04-16T17:33:33.629Z,77.70
2018-04-16T17:36:01.105Z,78.40
2018-04-16T17:38:28.608Z,82.00
2018-04-16T17:40:56.061Z,81.90
2018-04-16T17:43:23.563Z,83.50
2018-04-16T17:45:51.050Z,82.90
2018-04-16T17:48:18.553Z,80.00
2018-04-16T17:50:46.077Z,80.80
2018-04-16T17:53:14.301Z,86.70
2018-04-16T17:55:41.756Z,86.60
2018-04-16T17:58:09.989Z,90.50
2018-04-16T18:00:37.482Z,90.40
2018-04-16T18:03:05.077Z,91.50
2018-04-16T18:05:32.702Z,92.70
2018-04-16T18:08:00.834Z,93.80
2018-04-16T18:10:28.301Z,93.70
2018-04-16T18:12:55.776Z,94.40
2018-04-16T18:15:23.305Z,95.00
2018-04-16T18:17:50.785Z,95.70
2018-04-16T18:20:18.259Z,96.70
2018-04-16T18:22:45.771Z,97.40
2018-04-16T18:25:13.288Z,97.80
2018-04-16T18:27:41.541Z,98.60
2018-04-16T18:30:09.000Z,98.60
2018-04-16T18:32:37.260Z,99.60
2018-04-16T18:35:04.725Z,99.60
2018-04-16T18:37:32.229Z,99.90
2018-04-16T18:39:59.757Z,99.90
2018-04-16T18:42:28.170Z,99.90
2018-04-16T18:44:56.397Z,99.90
2018-04-16T18:47:24.796Z,99.90
2018-04-16T18:49:52.294Z,99.90
2018-04-16T18:52:19.749Z,99.90
2018-04-16T18:54:47.266Z,99.90
2018-04-16T18:57:14.725Z,99.90
2018-04-16T18:59:42.197Z,99.90
2018-04-16T19:02:09.665Z,99.90
2018-04-16T19:04:37.189Z,99.90
2018-04-16T19:07:04.649Z,99.90
2018-04-16T19:09:32.106Z,99.90
2018-04-16T19:11:59.658Z,99.90
2018-04-16T19:14:27.114Z,99.90
2018-04-16T19:16:55.374Z,99.90
2018-04-16T19:19:22.828Z,99.90
2018-04-16T19:21:54.240Z,99.90
2018-04-16T19:24:21.708Z,99.90
2018-04-16T19:26:55.006Z,99.90
2018-04-16T19:29:22.472Z,99.90
2018-04-16T19:31:49.962Z,99.90
2018-04-16T19:34:23.252Z,99.90
2018-04-16T19:36:51.546Z,99.90
2018-04-16T19:39:19.354Z,99.90
2018-04-16T19:41:52.602Z,99.90
2018-04-16T19:44:20.665Z,99.90
2018-04-16T19:46:48.145Z,99.90
2018-04-16T19:49:22.011Z,99.90
2018-04-16T19:51:49.476Z,99.90
2018-04-16T19:54:16.996Z,99.90
2018-04-16T19:56:50.105Z,99.90
2018-04-16T19:59:17.561Z,99.90
2018-04-16T20:01:45.023Z,99.90
2018-04-16T20:04:13.249Z,99.90
2018-04-16T20:06:40.749Z,99.90
2018-04-16T20:09:08.347Z,99.90
2018-04-16T20:11:35.924Z,99.90
2018-04-16T20:14:03.393Z,99.90
2018-04-16T20:16:30.897Z,99.90
2018-04-16T20:18:58.352Z,99.90
2018-04-16T20:21:25.820Z,99.90
2018-04-16T20:23:54.053Z,99.90
2018-04-16T20:26:21.544Z,99.90
2018-04-16T20:28:49.012Z,99.90
2018-04-16T20:31:16.469Z,99.90
2018-04-16T20:33:44.714Z,99.90
2018-04-16T20:36:12.175Z,99.90
2018-04-16T20:38:39.682Z,99.90
2018-04-16T20:41:07.156Z,99.90
2018-04-16T20:43:34.614Z,99.90
2018-04-16T20:46:02.074Z,99.90
2018-04-16T20:48:30.292Z,99.90
2018-04-16T20:50:57.876Z,99.90
2018-04-16T20:53:25.337Z,99.90
2018-04-16T20:55:53.562Z,99.90
2018-04-16T20:58:21.024Z,99.90
2018-04-16T21:00:49.245Z,99.90
2018-04-16T21:03:16.696Z,99.90
2018-04-16T21:05:44.963Z,99.90
2018-04-16T21:08:12.488Z,99.90
2018-04-16T21:10:40.761Z,99.90
2018-04-16T21:13:08.278Z,99.90
2018-04-16T21:15:35.792Z,99.90
2018-04-16T21:18:03.332Z,99.90
2018-04-16T21:20:31.604Z,99.90
2018-04-16T21:22:59.114Z,99.90
2018-04-16T21:25:27.390Z,99.90
2018-04-16T21:27:55.005Z,99.90
2018-04-16T21:30:23.305Z,99.90
2018-04-16T21:32:51.616Z,99.90
2018-04-16T21:35:19.906Z,99.90
2018-04-16T21:37:47.412Z,99.90
2018-04-16T21:40:15.689Z,99.90
2018-04-16T21:42:43.199Z,99.90
2018-04-16T21:45:10.713Z,99.90
2018-04-16T21:47:38.232Z,99.90
2018-04-16T21:50:05.751Z,99.90
2018-04-16T21:52:33.324Z,99.90
2018-04-16T21:55:00.896Z,99.90
2018-04-16T21:57:29.175Z,99.90
2018-04-16T21:59:56.680Z,99.90
2018-04-16T22:02:24.956Z,99.90
2018-04-16T22:04:52.573Z,99.90
2018-04-16T22:07:20.890Z,99.90
2018-04-16T22:09:49.176Z,99.90
2018-04-16T22:12:16.700Z,99.90
2018-04-16T22:14:44.222Z,99.90
2018-04-16T22:17:11.761Z,99.90
2018-04-16T22:19:39.269Z,99.90
2018-04-16T22:22:06.793Z,99.90
2018-04-16T22:24:34.400Z,99.90
2018-04-16T22:27:01.913Z,99.90
2018-04-16T22:29:29.428Z,99.90
2018-04-16T22:31:57.761Z,99.90
2018-04-16T22:34:26.031Z,99.90
2018-04-16T22:36:53.544Z,99.90
2018-04-16T22:39:21.820Z,99.90
2018-04-16T22:41:49.333Z,99.90
2018-04-16T22:44:17.676Z,99.90
2018-04-16T22:46:45.181Z,99.90
2018-04-16T22:49:12.797Z,99.90
2018-04-16T22:51:41.080Z,99.90
2018-04-16T22:54:09.366Z,99.90
2018-04-16T22:56:36.869Z,99.90
2018-04-16T22:59:04.386Z,99.90
2018-04-16T23:01:31.945Z,99.90
2018-04-16T23:04:00.219Z,99.90
2018-04-16T23:06:28.494Z,99.90
2018-04-16T23:08:56.019Z,99.90
2018-04-16T23:11:24.292Z,99.90
2018-04-16T23:13:51.938Z,99.90
2018-04-16T23:16:19.512Z,99.90
2018-04-16T23:18:47.813Z,99.90
2018-04-16T23:21:16.089Z,99.90
2018-04-16T23:23:44.409Z,99.90
2018-04-16T23:26:11.936Z,99.90
2018-04-16T23:28:40.013Z,99.90
2018-04-16T23:31:07.579Z,99.90
2018-04-16T23:33:35.876Z,99.90
2018-04-16T23:36:04.165Z,99.90
2018-04-16T23:38:32.445Z,99.90
2018-04-16T23:40:59.966Z,99.90
2018-04-16T23:43:28.238Z,99.90
2018-04-16T23:45:55.750Z,99.90
2018-04-16T23:48:24.028Z,99.90
2018-04-16T23:50:51.540Z,99.90
2018-04-16T23:53:19.844Z,99.90
2018-04-16T23:55:48.120Z,99.90
2018-04-16T23:58:15.636Z,99.90
